Decoded Metar for UKOO (ODESSA in UKRAINE) (IATA:ODS) | Meteo·Mobile Aviation Weather
aviador You're here:

UKOO Decoded Metar

ODESSA in UKRAINE
Report Time2019-07-20 01:00:00
UTC Time2019-07-20 01:13:59
Flight Rules vfr VFR
WindCalm
Visibility9999 m
Phenomena:N/A
Clouds:N/A
Expected CloudBase > 400 ft AGL from Temp-Dew spread
CeilingNone
Temp18°C (ISA +3)
Dew Point17°C (94% RH)
QNH1018 hPa
Density Alt584 ft
Elevation115 ft
Report Wrong Elevation
Raw Report
METAR UKOO 200100Z 00000MPS CAVOK 18/17 Q1018 R16/090060 NOSIG=

Extra information for UKOO:More info

Metar Taf Metar & Taf Last 4 Metars F.Rules Stats Wind Profile Meteogram Temp Stats Airport Information Weather charts Add Link Nearby VenuesMetar ALERT Operation Metar Decoded Social comments